Terminal Aerodrome Forecast
Issued by NWS Jackson, MS

Home | Current Version | Previous Version | Text Only | Print | Product List | Glossary On
Versions: 1 2 3 4 5 6 7 8 9 10 11 12 13 14
000
FTUS44 KJAN 231740
TAFGLH
TAF
KGLH 231740Z 2318/2418 33007KT P6SM VCSH SCT025 BKN040
     FM240000 31007KT P6SM -SHRA OVC025
     FM240400 30005KT P6SM -SHRA VCTS BKN015CB OVC025
     FM240900 29006KT 4SM -RA BR OVC015
     FM241400 30009KT P6SM BKN025=

USA.gov is the U.S. government's official web portal to all federal, state and local government web resources and services.